x

Tillamook, Or - 85 Nm Wnw Of Tillamook, Or (46089) Wave Buoy

2:50pm - Tue 3rd May 2016 All times are PDT. -7 hours from GMT.

  • Sig Wave height 6.6ft
  • Swell Direction
  • Peak Period 12s
  • Average Period 7s
  • Wind
    16mph, 18mph gusts
  • Sea Temp 55°f
  • Air Temp 53°f
  • Sea Pressure 1020.9mb
  • Tillamook, Or - 85 Nm Wnw Of Tillamook, Or
  • Tillamook, Or - 85 Nm Wnw Of Tillamook, Or

More Historic Weather Station data

Upgrade to MSW Pro to gain access to the past 30 days of data for over 8000 Wavebouys and Weather Stations around the globe.

Join Pro

Comparision Forecast

View Surf forecast
   
Tue 05/03 2:50pm 6.5ft 12s 7s 16 18 mph 1020.9mb 55f 53f
1:50pm 6ft 11s 7s 11 16 mph 1020.5mb 55f 54f
12:50pm 6.5ft 10s 7s 13 16 mph 1020.3mb 55f 54f
11:50am 7ft 12s 8s 11 16 mph 1019.7mb 55f 54f
10:50am 6.5ft 12s 8s 11 13 mph 1019.2mb 55f 54f
9:50am 7ft 12s 8s 9 11 mph 1018.9mb 55f 54f
8:50am 7.5ft 10s 8s 7 9 mph 1018.4mb 54f 54f
7:50am 7.5ft 10s 8s 7 9 mph 1018.1mb 54f 54f
6:50am 8ft 13s 9s 9
mph
1018.1mb 55f 54f
5:50am 7.5ft 12s 9s 9 11 mph 1017.8mb 55f 54f
4:50am 7ft 12s 9s 9 11 mph 1017.4mb 54f 54f
3:50am 6.5ft 13s 8s 9 11 mph 1017.5mb 55f 54f
2:50am 7.5ft 13s 9s 11 13 mph 1017.4mb 55f 54f
1:50am 6ft 13s 8s 13 18 mph 1017.3mb 55f 54f
12:50am 7ft 12s 9s 13 16 mph 1017.3mb 55f 54f
Mon 05/02 11:50pm 7ft 14s 9s 11 13 mph 1017.4mb 55f 54f
10:50pm 6.5ft 13s 9s 13 16 mph 1016.6mb 55f 54f
9:50pm 8ft 13s 9s 9 11 mph 1016.3mb 55f 54f
8:50pm 7.5ft 13s 9s 7 9 mph 1015.7mb 55f 54f
7:50pm 8ft 13s 9s 9 11 mph 1015.1mb 55f 54f
6:50pm 8ft 13s 9s 11 13 mph 1015.2mb 55f 55f
5:50pm 8ft 13s 9s 9 11 mph 1015.4mb 55f 55f
4:50pm 8.5ft 13s 10s 9 11 mph 1015.4mb 55f 55f
3:50pm 9ft 14s 10s 9 11 mph 1015.3mb 55f 55f
2:50pm 7.5ft 14s 9s 9 11 mph 1015.4mb 55f 55f
1:50pm 8ft 14s 11s 11 13 mph 1014.9mb 55f 55f
12:50pm 7ft 13s 10s 9 11 mph 1014.6mb 55f 55f
11:50am 9.5ft 14s 11s 7 11 mph 1014.1mb 55f 56f
10:50am 8ft 14s 11s 7 9 mph 1013.2mb 54f 56f
9:50am 7ft 14s 10s 4 9 mph 1012.7mb 54f 56f
8:50am 8.5ft 14s 11s 9 13 mph 1012.3mb 54f 55f
7:50am 6.5ft 14s 9s 7 9 mph 1011.7mb 54f 56f
6:50am 8ft 14s 10s 11 13 mph 1011mb 54f 55f
5:50am 8ft 14s 10s 11 13 mph 1011.3mb 54f 55f
4:50am 7.5ft 15s 10s 11 16 mph 1011.5mb 54f 55f
3:50am 6.5ft 11s 9s 11
mph
1011.3mb 54f 55f
2:50am 7ft 15s 10s 11 13 mph 1011.3mb 54f 55f
1:50am 7ft 13s 9s 9 11 mph 1011.4mb 54f 56f
12:50am 6ft 12s 9s 13 16 mph 1011.2mb 54f 57f
Sun 05/01 11:50pm 6ft 13s 9s 9 11 mph 1011.8mb 54f 55f
10:50pm 6.5ft 12s 9s 7 9 mph 1012.3mb 55f 56f
9:50pm 6ft 12s 9s 7 9 mph 1012.3mb 55f 56f
8:50pm 6ft 12s 8s 9
mph
1012.2mb 55f 56f
7:50pm 5ft 13s 8s 9 11 mph 1012.1mb 55f 56f
6:50pm 5ft 13s 8s 11 13 mph 1012.5mb 55f 57f
5:50pm 5ft 13s 7s 11
mph
1013.2mb 55f 57f
4:50pm 5.5ft 13s 8s 9 13 mph 1013.9mb 55f 57f
3:50pm 5.5ft 13s 7s 11 13 mph 1014.8mb 55f 56f
2:50pm 5ft 13s 7s 9 11 mph 1015.8mb 54f 56f
1:50pm 6ft 14s 7s 11 13 mph 1016.3mb 54f 55f
12:50pm 6ft 13s 7s 11 13 mph 1017.1mb 54f 55f
11:50am 6ft 14s 7s 13 18 mph 1017.8mb 54f 55f
10:50am 6.5ft 13s 7s 13 16 mph 1018.6mb 54f 55f
9:50am 6.5ft 14s 7s 16 18 mph 1019.3mb 54f 54f
8:50am 7ft 14s 7s 18 22 mph 1020mb 53f 53f
7:50am 7ft 14s 7s 20 22 mph 1020.6mb 53f 53f
6:50am 6ft 13s 7s 20 22 mph 1021mb 53f 53f
5:50am 6.5ft 13s 7s 20 22 mph 1021.6mb 53f 53f
4:50am 7ft 13s 7s 18 20 mph 1022.4mb 53f 53f
3:50am 7ft 13s 7s 18 20 mph 1023.3mb 53f 53f
2:50am 7ft 14s 6s 18 22 mph 1024.2mb 53f 52f
1:50am 7ft 13s 6s 18 22 mph 1024.8mb 54f 52f
12:50am 7ft 14s 7s 18 22 mph 1025.6mb 54f 52f
Sat 04/30 11:50pm 6ft 14s 6s 18 22 mph 1026.2mb 54f 52f
10:50pm 6ft 14s 6s 18 20 mph 1026.9mb 54f 52f
9:50pm 6ft 15s 6s 18 20 mph 1027.1mb 54f 52f
8:50pm 6ft 11s 6s 18 20 mph 1027.1mb 54f 52f
7:50pm 6ft 10s 6s 18 22 mph 1027.5mb 54f 52f
6:50pm 6.5ft 10s 6s 18 22 mph 1028mb 54f 52f
5:50pm 6.5ft 10s 6s 16 20 mph 1028.4mb 54f 52f
4:50pm 6.5ft 10s 7s 16 18 mph 1028.8mb 54f 52f
3:50pm 6.5ft 10s 7s 16 18 mph 1029.2mb 54f 52f
2:50pm 7ft 10s 7s 13 18 mph 1029.7mb 54f 52f
1:50pm 6.5ft 10s 7s 13 16 mph 1030.1mb 54f 52f
12:50pm 7ft 11s 7s 13 16 mph 1030mb 54f 51f
11:50am 7ft 8s 7s 13 16 mph 1030mb 53f 51f
10:50am 6.5ft 11s 7s 11 16 mph 1029.9mb 53f 51f
9:50am 7ft 10s 7s 13 16 mph 1029.8mb 53f 51f
8:50am 8ft 11s 7s 11 16 mph 1029.6mb 53f 51f
7:50am 8ft 10s 7s 16 18 mph 1029.3mb 53f 51f
6:50am 7.5ft 8s 7s 16 18 mph 1028.8mb 53f 51f
5:50am 7.5ft 11s 7s 16 18 mph 1028.3mb 53f 51f
4:50am 8ft 10s 7s 13 18 mph 1028.4mb 53f 51f
3:50am 8ft 11s 7s 16 18 mph 1028.3mb 53f 51f
2:50am 8ft 11s 7s 16 20 mph 1028.2mb 53f 51f
1:50am 9ft 11s 6s 18 22 mph 1027.9mb 53f 51f
12:50am 8ft 10s 6s 18 22 mph 1027.5mb 53f 51f
Fri 04/29 11:50pm 9ft 7s 6s 20 25 mph 1027.2mb 53f 51f